sensor_id;sensor_type;location;lat;lon;timestamp;temperature;humidity
21184;DHT22;18176;49.502;11.754;2023-09-19T00:01:54;13.90;99.90
21184;DHT22;18176;49.502;11.754;2023-09-19T00:05:55;13.90;99.90
21184;DHT22;18176;49.502;11.754;2023-09-19T00:09:58;14.00;99.90
21184;DHT22;18176;49.502;11.754;2023-09-19T00:13:59;14.00;99.90
21184;DHT22;18176;49.502;11.754;2023-09-19T00:18:03;14.00;99.90
21184;DHT22;18176;49.502;11.754;2023-09-19T00:22:04;14.00;99.90
21184;DHT22;18176;49.502;11.754;2023-09-19T00:26:04;14.10;99.90
21184;DHT22;18176;49.502;11.754;2023-09-19T00:30:06;14.10;99.90
21184;DHT22;18176;49.502;11.754;2023-09-19T00:34:14;14.20;99.90
21184;DHT22;18176;49.502;11.754;2023-09-19T00:38:14;14.20;99.90
21184;DHT22;18176;49.502;11.754;2023-09-19T00:42:18;14.20;99.90
21184;DHT22;18176;49.502;11.754;2023-09-19T00:46:19;14.20;99.90
21184;DHT22;18176;49.502;11.754;2023-09-19T00:50:23;14.30;99.90
21184;DHT22;18176;49.502;11.754;2023-09-19T00:54:26;14.30;99.90
21184;DHT22;18176;49.502;11.754;2023-09-19T00:58:26;14.20;99.90
21184;DHT22;18176;49.502;11.754;2023-09-19T01:02:31;14.20;99.90
21184;DHT22;18176;49.502;11.754;2023-09-19T01:06:35;14.10;99.90
21184;DHT22;18176;49.502;11.754;2023-09-19T01:10:38;14.00;99.90
21184;DHT22;18176;49.502;11.754;2023-09-19T01:14:54;14.00;99.90
21184;DHT22;18176;49.502;11.754;2023-09-19T01:19:12;13.90;99.90
21184;DHT22;18176;49.502;11.754;2023-09-19T01:23:39;13.90;99.90
21184;DHT22;18176;49.502;11.754;2023-09-19T01:28:20;13.80;99.90
21184;DHT22;18176;49.502;11.754;2023-09-19T01:32:29;13.70;99.90
21184;DHT22;18176;49.502;11.754;2023-09-19T01:36:32;13.70;99.90
21184;DHT22;18176;49.502;11.754;2023-09-19T01:40:41;13.70;99.90
21184;DHT22;18176;49.502;11.754;2023-09-19T01:44:51;13.70;99.90
21184;DHT22;18176;49.502;11.754;2023-09-19T01:49:06;13.70;99.90
21184;DHT22;18176;49.502;11.754;2023-09-19T01:53:23;13.70;99.90
21184;DHT22;18176;49.502;11.754;2023-09-19T01:57:29;13.60;99.90
21184;DHT22;18176;49.502;11.754;2023-09-19T02:01:33;13.60;99.90
21184;DHT22;18176;49.502;11.754;2023-09-19T02:05:38;13.60;99.90
21184;DHT22;18176;49.502;11.754;2023-09-19T02:09:39;13.60;99.90
21184;DHT22;18176;49.502;11.754;2023-09-19T02:13:40;13.70;99.90
21184;DHT22;18176;49.502;11.754;2023-09-19T02:17:41;13.70;99.90
21184;DHT22;18176;49.502;11.754;2023-09-19T02:21:45;13.70;99.90
21184;DHT22;18176;49.502;11.754;2023-09-19T02:25:52;13.80;99.90
21184;DHT22;18176;49.502;11.754;2023-09-19T02:29:55;13.90;99.90
21184;DHT22;18176;49.502;11.754;2023-09-19T02:33:55;14.00;99.90
21184;DHT22;18176;49.502;11.754;2023-09-19T02:37:59;14.10;99.90
21184;DHT22;18176;49.502;11.754;2023-09-19T02:42:04;14.10;99.90
21184;DHT22;18176;49.502;11.754;2023-09-19T02:46:05;14.10;99.90
21184;DHT22;18176;49.502;11.754;2023-09-19T02:50:06;14.10;99.90
21184;DHT22;18176;49.502;11.754;2023-09-19T02:54:11;14.10;99.90
21184;DHT22;18176;49.502;11.754;2023-09-19T02:58:12;14.20;99.90
21184;DHT22;18176;49.502;11.754;2023-09-19T03:02:13;14.20;99.90
21184;DHT22;18176;49.502;11.754;2023-09-19T03:06:14;14.20;99.90
21184;DHT22;18176;49.502;11.754;2023-09-19T03:10:17;14.20;99.90
21184;DHT22;18176;49.502;11.754;2023-09-19T03:14:18;14.30;99.90
21184;DHT22;18176;49.502;11.754;2023-09-19T03:18:20;14.30;99.90
21184;DHT22;18176;49.502;11.754;2023-09-19T03:22:21;14.30;99.90
21184;DHT22;18176;49.502;11.754;2023-09-19T03:26:24;14.30;99.90
21184;DHT22;18176;49.502;11.754;2023-09-19T03:30:25;14.30;99.90
21184;DHT22;18176;49.502;11.754;2023-09-19T03:34:26;14.30;99.90
21184;DHT22;18176;49.502;11.754;2023-09-19T03:38:27;14.30;99.90
21184;DHT22;18176;49.502;11.754;2023-09-19T03:42:30;14.30;99.90
21184;DHT22;18176;49.502;11.754;2023-09-19T03:46:33;14.30;99.90
21184;DHT22;18176;49.502;11.754;2023-09-19T03:50:34;14.40;99.90
21184;DHT22;18176;49.502;11.754;2023-09-19T03:54:34;14.40;99.90
21184;DHT22;18176;49.502;11.754;2023-09-19T03:58:37;14.40;99.90
21184;DHT22;18176;49.502;11.754;2023-09-19T04:02:38;14.40;99.90
21184;DHT22;18176;49.502;11.754;2023-09-19T04:06:38;14.50;99.90
21184;DHT22;18176;49.502;11.754;2023-09-19T04:10:38;14.60;99.90
21184;DHT22;18176;49.502;11.754;2023-09-19T04:14:41;14.60;99.90
21184;DHT22;18176;49.502;11.754;2023-09-19T04:18:41;14.50;99.90
21184;DHT22;18176;49.502;11.754;2023-09-19T04:22:42;14.60;99.90
21184;DHT22;18176;49.502;11.754;2023-09-19T04:26:42;14.60;99.90
21184;DHT22;18176;49.502;11.754;2023-09-19T04:30:45;14.60;99.90
21184;DHT22;18176;49.502;11.754;2023-09-19T04:34:46;14.60;99.90
21184;DHT22;18176;49.502;11.754;2023-09-19T04:38:47;14.60;99.90
21184;DHT22;18176;49.502;11.754;2023-09-19T04:42:53;14.70;99.90
21184;DHT22;18176;49.502;11.754;2023-09-19T04:46:58;14.80;99.90
21184;DHT22;18176;49.502;11.754;2023-09-19T04:50:59;15.00;99.90
21184;DHT22;18176;49.502;11.754;2023-09-19T04:55:00;15.10;99.90
21184;DHT22;18176;49.502;11.754;2023-09-19T04:59:01;15.10;99.90
21184;DHT22;18176;49.502;11.754;2023-09-19T05:03:05;15.10;99.90
21184;DHT22;18176;49.502;11.754;2023-09-19T05:07:06;15.10;99.90
21184;DHT22;18176;49.502;11.754;2023-09-19T05:11:08;15.20;99.90
21184;DHT22;18176;49.502;11.754;2023-09-19T05:15:09;15.20;99.90
21184;DHT22;18176;49.502;11.754;2023-09-19T05:19:12;15.30;99.90
21184;DHT22;18176;49.502;11.754;2023-09-19T05:23:12;15.30;99.90
21184;DHT22;18176;49.502;11.754;2023-09-19T05:27:12;15.20;99.90
21184;DHT22;18176;49.502;11.754;2023-09-19T05:31:14;15.20;99.90
21184;DHT22;18176;49.502;11.754;2023-09-19T05:35:17;15.20;99.90
21184;DHT22;18176;49.502;11.754;2023-09-19T05:39:18;15.10;99.90
21184;DHT22;18176;49.502;11.754;2023-09-19T05:43:20;15.10;99.90
21184;DHT22;18176;49.502;11.754;2023-09-19T05:47:20;15.10;99.90
21184;DHT22;18176;49.502;11.754;2023-09-19T05:51:24;15.20;99.90
21184;DHT22;18176;49.502;11.754;2023-09-19T05:55:25;15.30;99.90
21184;DHT22;18176;49.502;11.754;2023-09-19T05:59:26;15.50;99.90
21184;DHT22;18176;49.502;11.754;2023-09-19T06:03:27;15.50;99.90
21184;DHT22;18176;49.502;11.754;2023-09-19T06:07:31;15.50;99.90
21184;DHT22;18176;49.502;11.754;2023-09-19T06:11:34;15.40;99.90
21184;DHT22;18176;49.502;11.754;2023-09-19T06:15:34;15.30;99.90
21184;DHT22;18176;49.502;11.754;2023-09-19T06:19:34;15.50;99.90
21184;DHT22;18176;49.502;11.754;2023-09-19T06:23:38;15.80;99.90
21184;DHT22;18176;49.502;11.754;2023-09-19T06:27:39;16.10;99.90
21184;DHT22;18176;49.502;11.754;2023-09-19T06:31:41;16.20;99.90
21184;DHT22;18176;49.502;11.754;2023-09-19T06:35:41;16.30;99.90
21184;DHT22;18176;49.502;11.754;2023-09-19T06:39:46;16.20;99.90
21184;DHT22;18176;49.502;11.754;2023-09-19T06:43:47;16.10;99.90
21184;DHT22;18176;49.502;11.754;2023-09-19T06:47:51;16.00;99.90
21184;DHT22;18176;49.502;11.754;2023-09-19T06:51:56;15.80;99.90
21184;DHT22;18176;49.502;11.754;2023-09-19T06:55:59;15.60;99.90
21184;DHT22;18176;49.502;11.754;2023-09-19T07:00:00;15.60;99.90
21184;DHT22;18176;49.502;11.754;2023-09-19T07:04:05;15.80;99.90
21184;DHT22;18176;49.502;11.754;2023-09-19T07:08:07;15.90;99.90
21184;DHT22;18176;49.502;11.754;2023-09-19T07:12:12;15.90;99.90
21184;DHT22;18176;49.502;11.754;2023-09-19T07:16:14;16.10;99.90
21184;DHT22;18176;49.502;11.754;2023-09-19T07:20:24;16.30;99.90
21184;DHT22;18176;49.502;11.754;2023-09-19T07:24:29;16.50;99.90
21184;DHT22;18176;49.502;11.754;2023-09-19T07:28:32;16.80;99.90
21184;DHT22;18176;49.502;11.754;2023-09-19T07:32:33;17.00;99.90
21184;DHT22;18176;49.502;11.754;2023-09-19T07:36:34;16.90;99.90
21184;DHT22;18176;49.502;11.754;2023-09-19T07:40:35;17.00;99.90
21184;DHT22;18176;49.502;11.754;2023-09-19T07:44:38;17.30;99.90
21184;DHT22;18176;49.502;11.754;2023-09-19T07:48:38;17.50;99.90
21184;DHT22;18176;49.502;11.754;2023-09-19T07:52:41;17.50;99.90
21184;DHT22;18176;49.502;11.754;2023-09-19T07:56:42;17.50;99.90
21184;DHT22;18176;49.502;11.754;2023-09-19T08:00:45;17.60;99.90
21184;DHT22;18176;49.502;11.754;2023-09-19T08:04:45;17.90;99.90
21184;DHT22;18176;49.502;11.754;2023-09-19T08:08:46;18.10;99.90
21184;DHT22;18176;49.502;11.754;2023-09-19T08:12:48;18.50;99.90
21184;DHT22;18176;49.502;11.754;2023-09-19T08:16:59;19.00;99.90
21184;DHT22;18176;49.502;11.754;2023-09-19T08:20:59;19.50;99.90
21184;DHT22;18176;49.502;11.754;2023-09-19T08:25:00;19.80;99.90
21184;DHT22;18176;49.502;11.754;2023-09-19T08:29:02;20.20;99.90
21184;DHT22;18176;49.502;11.754;2023-09-19T08:33:06;20.30;99.90
21184;DHT22;18176;49.502;11.754;2023-09-19T08:37:08;20.10;99.90
21184;DHT22;18176;49.502;11.754;2023-09-19T08:41:08;19.80;99.90
21184;DHT22;18176;49.502;11.754;2023-09-19T08:45:09;19.70;99.90
21184;DHT22;18176;49.502;11.754;2023-09-19T08:49:19;19.80;99.90
21184;DHT22;18176;49.502;11.754;2023-09-19T08:53:29;20.10;99.90
21184;DHT22;18176;49.502;11.754;2023-09-19T08:57:36;20.10;99.90
21184;DHT22;18176;49.502;11.754;2023-09-19T09:01:39;20.20;99.90
21184;DHT22;18176;49.502;11.754;2023-09-19T09:05:44;20.30;99.90
21184;DHT22;18176;49.502;11.754;2023-09-19T09:09:47;20.80;99.90
21184;DHT22;18176;49.502;11.754;2023-09-19T09:13:48;21.10;99.90
21184;DHT22;18176;49.502;11.754;2023-09-19T09:17:49;21.10;99.90
21184;DHT22;18176;49.502;11.754;2023-09-19T09:21:53;20.70;99.90
21184;DHT22;18176;49.502;11.754;2023-09-19T09:25:56;20.80;99.90
21184;DHT22;18176;49.502;11.754;2023-09-19T09:30:03;20.70;99.90
21184;DHT22;18176;49.502;11.754;2023-09-19T09:34:04;20.70;99.90
21184;DHT22;18176;49.502;11.754;2023-09-19T09:38:07;20.70;99.90
21184;DHT22;18176;49.502;11.754;2023-09-19T09:42:08;20.60;99.90
21184;DHT22;18176;49.502;11.754;2023-09-19T09:46:11;20.50;99.90
21184;DHT22;18176;49.502;11.754;2023-09-19T09:50:26;20.20;99.90
21184;DHT22;18176;49.502;11.754;2023-09-19T09:54:58;20.40;99.90
21184;DHT22;18176;49.502;11.754;2023-09-19T09:59:03;20.20;99.90
21184;DHT22;18176;49.502;11.754;2023-09-19T10:03:19;19.70;99.90
21184;DHT22;18176;49.502;11.754;2023-09-19T10:07:28;19.30;99.90
21184;DHT22;18176;49.502;11.754;2023-09-19T10:11:38;19.00;99.90
21184;DHT22;18176;49.502;11.754;2023-09-19T10:15:43;18.90;99.90
21184;DHT22;18176;49.502;11.754;2023-09-19T10:19:50;18.90;99.90
21184;DHT22;18176;49.502;11.754;2023-09-19T10:23:55;19.20;99.90
21184;DHT22;18176;49.502;11.754;2023-09-19T10:28:06;19.90;99.90
21184;DHT22;18176;49.502;11.754;2023-09-19T10:32:12;19.80;99.90
21184;DHT22;18176;49.502;11.754;2023-09-19T10:36:16;19.80;99.90
21184;DHT22;18176;49.502;11.754;2023-09-19T10:40:18;19.90;99.90
21184;DHT22;18176;49.502;11.754;2023-09-19T10:44:26;19.80;99.90
21184;DHT22;18176;49.502;11.754;2023-09-19T10:48:31;20.20;99.90
21184;DHT22;18176;49.502;11.754;2023-09-19T10:52:32;20.80;99.90
21184;DHT22;18176;49.502;11.754;2023-09-19T10:56:43;21.50;99.90
21184;DHT22;18176;49.502;11.754;2023-09-19T11:00:55;21.90;99.90
21184;DHT22;18176;49.502;11.754;2023-09-19T11:05:11;22.50;99.90
21184;DHT22;18176;49.502;11.754;2023-09-19T11:09:12;22.90;99.90
21184;DHT22;18176;49.502;11.754;2023-09-19T11:13:26;22.90;99.90
21184;DHT22;18176;49.502;11.754;2023-09-19T11:17:35;23.10;99.90
21184;DHT22;18176;49.502;11.754;2023-09-19T11:21:52;23.80;99.90
21184;DHT22;18176;49.502;11.754;2023-09-19T11:25:55;24.20;99.90
21184;DHT22;18176;49.502;11.754;2023-09-19T11:30:25;23.40;99.90
21184;DHT22;18176;49.502;11.754;2023-09-19T11:34:44;22.30;99.90
21184;DHT22;18176;49.502;11.754;2023-09-19T11:38:57;23.00;99.90
21184;DHT22;18176;49.502;11.754;2023-09-19T11:43:29;23.10;99.90
21184;DHT22;18176;49.502;11.754;2023-09-19T11:47:32;22.70;99.90
21184;DHT22;18176;49.502;11.754;2023-09-19T11:51:40;23.00;99.90
21184;DHT22;18176;49.502;11.754;2023-09-19T11:55:43;23.60;99.90
21184;DHT22;18176;49.502;11.754;2023-09-19T11:59:45;25.00;99.90
21184;DHT22;18176;49.502;11.754;2023-09-19T12:03:53;25.80;99.80
21184;DHT22;18176;49.502;11.754;2023-09-19T12:07:59;26.50;98.50
21184;DHT22;18176;49.502;11.754;2023-09-19T12:12:04;26.40;97.80
21184;DHT22;18176;49.502;11.754;2023-09-19T12:16:11;25.50;98.10
21184;DHT22;18176;49.502;11.754;2023-09-19T12:20:19;24.20;99.40
21184;DHT22;18176;49.502;11.754;2023-09-19T12:24:23;23.90;99.90
21184;DHT22;18176;49.502;11.754;2023-09-19T12:28:27;24.50;98.00
21184;DHT22;18176;49.502;11.754;2023-09-19T12:32:35;25.10;97.30
21184;DHT22;18176;49.502;11.754;2023-09-19T12:36:37;24.80;96.20
21184;DHT22;18176;49.502;11.754;2023-09-19T12:40:41;24.60;96.50
21184;DHT22;18176;49.502;11.754;2023-09-19T12:44:42;25.20;95.30
21184;DHT22;18176;49.502;11.754;2023-09-19T12:48:43;24.50;95.00
21184;DHT22;18176;49.502;11.754;2023-09-19T12:52:46;24.60;95.40
21184;DHT22;18176;49.502;11.754;2023-09-19T12:56:53;24.30;96.10
21184;DHT22;18176;49.502;11.754;2023-09-19T13:00:56;24.40;95.00
21184;DHT22;18176;49.502;11.754;2023-09-19T13:04:56;23.90;95.70
21184;DHT22;18176;49.502;11.754;2023-09-19T13:09:08;23.00;96.70
21184;DHT22;18176;49.502;11.754;2023-09-19T13:13:27;23.10;97.90
21184;DHT22;18176;49.502;11.754;2023-09-19T13:17:42;22.90;99.30
21184;DHT22;18176;49.502;11.754;2023-09-19T13:21:43;23.00;99.60
21184;DHT22;18176;49.502;11.754;2023-09-19T13:25:46;23.50;99.60
21184;DHT22;18176;49.502;11.754;2023-09-19T13:29:55;23.60;99.00
21184;DHT22;18176;49.502;11.754;2023-09-19T13:33:55;23.70;98.30
21184;DHT22;18176;49.502;11.754;2023-09-19T13:37:56;23.70;97.40
21184;DHT22;18176;49.502;11.754;2023-09-19T13:41:56;23.80;96.50
21184;DHT22;18176;49.502;11.754;2023-09-19T13:45:59;24.20;94.60
21184;DHT22;18176;49.502;11.754;2023-09-19T13:50:01;24.40;94.80
21184;DHT22;18176;49.502;11.754;2023-09-19T13:54:02;24.50;95.10
21184;DHT22;18176;49.502;11.754;2023-09-19T13:58:03;24.20;95.00
21184;DHT22;18176;49.502;11.754;2023-09-19T14:02:07;24.60;94.80
21184;DHT22;18176;49.502;11.754;2023-09-19T14:06:07;24.20;94.40
21184;DHT22;18176;49.502;11.754;2023-09-19T14:10:09;23.50;95.40
21184;DHT22;18176;49.502;11.754;2023-09-19T14:14:10;23.20;95.40
21184;DHT22;18176;49.502;11.754;2023-09-19T14:18:13;23.00;96.00
21184;DHT22;18176;49.502;11.754;2023-09-19T14:22:15;23.80;95.60
21184;DHT22;18176;49.502;11.754;2023-09-19T14:26:16;24.20;94.20
21184;DHT22;18176;49.502;11.754;2023-09-19T14:30:16;24.00;94.80
21184;DHT22;18176;49.502;11.754;2023-09-19T14:34:19;24.10;94.50
21184;DHT22;18176;49.502;11.754;2023-09-19T14:38:20;23.70;95.10
21184;DHT22;18176;49.502;11.754;2023-09-19T14:42:20;23.20;96.10
21184;DHT22;18176;49.502;11.754;2023-09-19T14:46:20;23.00;95.90
21184;DHT22;18176;49.502;11.754;2023-09-19T14:50:24;23.10;95.70
21184;DHT22;18176;49.502;11.754;2023-09-19T14:54:27;23.80;96.20
21184;DHT22;18176;49.502;11.754;2023-09-19T14:58:27;23.80;94.90
21184;DHT22;18176;49.502;11.754;2023-09-19T15:02:27;23.60;95.30
21184;DHT22;18176;49.502;11.754;2023-09-19T15:06:31;23.70;95.10
21184;DHT22;18176;49.502;11.754;2023-09-19T15:10:31;23.50;95.90
21184;DHT22;18176;49.502;11.754;2023-09-19T15:14:32;23.70;96.10
21184;DHT22;18176;49.502;11.754;2023-09-19T15:18:32;23.80;96.00
21184;DHT22;18176;49.502;11.754;2023-09-19T15:22:37;24.30;95.00
21184;DHT22;18176;49.502;11.754;2023-09-19T15:26:38;24.60;94.70
21184;DHT22;18176;49.502;11.754;2023-09-19T15:30:40;24.40;94.30
21184;DHT22;18176;49.502;11.754;2023-09-19T15:34:41;23.80;95.60
21184;DHT22;18176;49.502;11.754;2023-09-19T15:38:59;23.70;96.00
21184;DHT22;18176;49.502;11.754;2023-09-19T15:43:03;23.30;95.90
21184;DHT22;18176;49.502;11.754;2023-09-19T15:47:04;23.10;96.40
21184;DHT22;18176;49.502;11.754;2023-09-19T15:51:05;23.10;96.40
21184;DHT22;18176;49.502;11.754;2023-09-19T15:55:12;23.00;96.30
21184;DHT22;18176;49.502;11.754;2023-09-19T15:59:12;22.90;96.40
21184;DHT22;18176;49.502;11.754;2023-09-19T16:03:13;22.60;96.80
21184;DHT22;18176;49.502;11.754;2023-09-19T16:07:14;22.50;97.50
21184;DHT22;18176;49.502;11.754;2023-09-19T16:11:19;22.50;96.90
21184;DHT22;18176;49.502;11.754;2023-09-19T16:15:20;22.50;97.30
21184;DHT22;18176;49.502;11.754;2023-09-19T16:19:20;22.10;97.90
21184;DHT22;18176;49.502;11.754;2023-09-19T16:23:20;21.60;98.90
21184;DHT22;18176;49.502;11.754;2023-09-19T16:27:23;21.40;99.50
21184;DHT22;18176;49.502;11.754;2023-09-19T16:31:23;21.30;99.90
21184;DHT22;18176;49.502;11.754;2023-09-19T16:35:24;21.10;99.90
21184;DHT22;18176;49.502;11.754;2023-09-19T16:39:24;20.90;99.90
21184;DHT22;18176;49.502;11.754;2023-09-19T16:43:28;20.80;99.90
21184;DHT22;18176;49.502;11.754;2023-09-19T16:47:29;20.60;99.90
21184;DHT22;18176;49.502;11.754;2023-09-19T16:51:30;20.40;99.90
21184;DHT22;18176;49.502;11.754;2023-09-19T16:55:33;20.30;99.90
21184;DHT22;18176;49.502;11.754;2023-09-19T16:59:38;20.20;99.90
21184;DHT22;18176;49.502;11.754;2023-09-19T17:03:38;20.00;99.90
21184;DHT22;18176;49.502;11.754;2023-09-19T17:07:40;19.70;99.90
21184;DHT22;18176;49.502;11.754;2023-09-19T17:11:43;19.50;99.90
21184;DHT22;18176;49.502;11.754;2023-09-19T17:15:59;19.30;99.90
21184;DHT22;18176;49.502;11.754;2023-09-19T17:20:00;19.00;99.90
21184;DHT22;18176;49.502;11.754;2023-09-19T17:24:01;18.70;99.90
21184;DHT22;18176;49.502;11.754;2023-09-19T17:28:05;18.50;99.90
21184;DHT22;18176;49.502;11.754;2023-09-19T17:32:08;18.20;99.90
21184;DHT22;18176;49.502;11.754;2023-09-19T17:36:09;18.10;99.90
21184;DHT22;18176;49.502;11.754;2023-09-19T17:40:12;17.90;99.90
21184;DHT22;18176;49.502;11.754;2023-09-19T17:44:12;17.70;99.90
21184;DHT22;18176;49.502;11.754;2023-09-19T17:48:15;17.50;99.90
21184;DHT22;18176;49.502;11.754;2023-09-19T17:52:16;17.40;99.90
21184;DHT22;18176;49.502;11.754;2023-09-19T17:56:17;17.30;99.90
21184;DHT22;18176;49.502;11.754;2023-09-19T18:00:18;17.10;99.90
21184;DHT22;18176;49.502;11.754;2023-09-19T18:04:22;17.00;99.90
21184;DHT22;18176;49.502;11.754;2023-09-19T18:08:22;16.80;99.90
21184;DHT22;18176;49.502;11.754;2023-09-19T18:12:23;16.70;99.90
21184;DHT22;18176;49.502;11.754;2023-09-19T18:16:23;16.50;99.90
21184;DHT22;18176;49.502;11.754;2023-09-19T18:20:27;16.30;99.90
21184;DHT22;18176;49.502;11.754;2023-09-19T18:24:28;16.20;99.90
21184;DHT22;18176;49.502;11.754;2023-09-19T18:28:29;16.00;99.90
21184;DHT22;18176;49.502;11.754;2023-09-19T18:32:29;15.90;99.90
21184;DHT22;18176;49.502;11.754;2023-09-19T18:36:33;15.80;99.90
21184;DHT22;18176;49.502;11.754;2023-09-19T18:40:33;15.70;99.90
21184;DHT22;18176;49.502;11.754;2023-09-19T18:44:34;15.60;99.90
21184;DHT22;18176;49.502;11.754;2023-09-19T18:48:36;15.50;99.90
21184;DHT22;18176;49.502;11.754;2023-09-19T18:52:41;15.40;99.90
21184;DHT22;18176;49.502;11.754;2023-09-19T18:56:42;15.30;99.90
21184;DHT22;18176;49.502;11.754;2023-09-19T19:00:43;15.20;99.90
21184;DHT22;18176;49.502;11.754;2023-09-19T19:04:44;15.10;99.90
21184;DHT22;18176;49.502;11.754;2023-09-19T19:08:47;15.00;99.90
21184;DHT22;18176;49.502;11.754;2023-09-19T19:12:48;14.90;99.90
21184;DHT22;18176;49.502;11.754;2023-09-19T19:16:49;14.80;99.90
21184;DHT22;18176;49.502;11.754;2023-09-19T19:20:57;14.70;99.90
21184;DHT22;18176;49.502;11.754;2023-09-19T19:25:00;14.70;99.90
21184;DHT22;18176;49.502;11.754;2023-09-19T19:29:01;14.60;99.90
21184;DHT22;18176;49.502;11.754;2023-09-19T19:33:02;14.50;99.90
21184;DHT22;18176;49.502;11.754;2023-09-19T19:37:03;14.50;99.90
21184;DHT22;18176;49.502;11.754;2023-09-19T19:41:06;14.30;99.90
21184;DHT22;18176;49.502;11.754;2023-09-19T19:45:08;14.40;99.90
21184;DHT22;18176;49.502;11.754;2023-09-19T19:49:12;14.20;99.90
21184;DHT22;18176;49.502;11.754;2023-09-19T19:53:14;14.10;99.90
21184;DHT22;18176;49.502;11.754;2023-09-19T19:57:17;14.00;99.90
21184;DHT22;18176;49.502;11.754;2023-09-19T20:01:18;13.90;99.90
21184;DHT22;18176;49.502;11.754;2023-09-19T20:05:19;13.80;99.90
21184;DHT22;18176;49.502;11.754;2023-09-19T20:09:20;13.70;99.90
21184;DHT22;18176;49.502;11.754;2023-09-19T20:13:23;13.60;99.90
21184;DHT22;18176;49.502;11.754;2023-09-19T20:17:24;13.50;99.90
21184;DHT22;18176;49.502;11.754;2023-09-19T20:21:25;13.50;99.90
21184;DHT22;18176;49.502;11.754;2023-09-19T20:25:26;13.40;99.90
21184;DHT22;18176;49.502;11.754;2023-09-19T20:29:33;13.40;99.90
21184;DHT22;18176;49.502;11.754;2023-09-19T20:33:35;13.30;99.90
21184;DHT22;18176;49.502;11.754;2023-09-19T20:37:37;13.30;99.90
21184;DHT22;18176;49.502;11.754;2023-09-19T20:41:37;13.30;99.90
21184;DHT22;18176;49.502;11.754;2023-09-19T20:45:41;13.20;99.90
21184;DHT22;18176;49.502;11.754;2023-09-19T20:49:41;13.10;99.90
21184;DHT22;18176;49.502;11.754;2023-09-19T20:53:44;13.10;99.90
21184;DHT22;18176;49.502;11.754;2023-09-19T20:57:45;13.00;99.90
21184;DHT22;18176;49.502;11.754;2023-09-19T21:01:48;12.90;99.90
21184;DHT22;18176;49.502;11.754;2023-09-19T21:05:59;12.80;99.90
21184;DHT22;18176;49.502;11.754;2023-09-19T21:10:04;12.70;99.90
21184;DHT22;18176;49.502;11.754;2023-09-19T21:14:06;12.60;99.90
21184;DHT22;18176;49.502;11.754;2023-09-19T21:18:09;12.50;99.90
21184;DHT22;18176;49.502;11.754;2023-09-19T21:22:09;12.40;99.90
21184;DHT22;18176;49.502;11.754;2023-09-19T21:26:10;12.40;99.90
21184;DHT22;18176;49.502;11.754;2023-09-19T21:30:12;12.30;99.90
21184;DHT22;18176;49.502;11.754;2023-09-19T21:34:17;12.30;99.90
21184;DHT22;18176;49.502;11.754;2023-09-19T21:38:17;12.30;99.90
21184;DHT22;18176;49.502;11.754;2023-09-19T21:42:17;12.20;99.90
21184;DHT22;18176;49.502;11.754;2023-09-19T21:46:18;12.20;99.90
21184;DHT22;18176;49.502;11.754;2023-09-19T21:50:21;12.20;99.90
21184;DHT22;18176;49.502;11.754;2023-09-19T21:54:22;12.10;99.90
21184;DHT22;18176;49.502;11.754;2023-09-19T21:58:23;12.10;99.90
21184;DHT22;18176;49.502;11.754;2023-09-19T22:02:23;12.00;99.90
21184;DHT22;18176;49.502;11.754;2023-09-19T22:06:26;11.90;99.90
21184;DHT22;18176;49.502;11.754;2023-09-19T22:10:26;11.90;99.90
21184;DHT22;18176;49.502;11.754;2023-09-19T22:14:27;11.90;99.90
21184;DHT22;18176;49.502;11.754;2023-09-19T22:18:30;11.90;99.90
21184;DHT22;18176;49.502;11.754;2023-09-19T22:22:33;11.80;99.90
21184;DHT22;18176;49.502;11.754;2023-09-19T22:26:35;11.70;99.90
21184;DHT22;18176;49.502;11.754;2023-09-19T22:30:37;11.70;99.90
21184;DHT22;18176;49.502;11.754;2023-09-19T22:34:42;11.60;99.90
21184;DHT22;18176;49.502;11.754;2023-09-19T22:38:44;11.60;99.90
21184;DHT22;18176;49.502;11.754;2023-09-19T22:42:47;11.50;99.90
21184;DHT22;18176;49.502;11.754;2023-09-19T22:46:47;11.50;99.90
21184;DHT22;18176;49.502;11.754;2023-09-19T22:50:48;11.50;99.90
21184;DHT22;18176;49.502;11.754;2023-09-19T22:54:57;11.40;99.90
21184;DHT22;18176;49.502;11.754;2023-09-19T22:58:59;11.30;99.90
21184;DHT22;18176;49.502;11.754;2023-09-19T23:03:01;11.30;99.90
21184;DHT22;18176;49.502;11.754;2023-09-19T23:07:03;11.20;99.90
21184;DHT22;18176;49.502;11.754;2023-09-19T23:11:08;11.10;99.90
21184;DHT22;18176;49.502;11.754;2023-09-19T23:15:09;11.10;99.90
21184;DHT22;18176;49.502;11.754;2023-09-19T23:19:14;11.10;99.90
21184;DHT22;18176;49.502;11.754;2023-09-19T23:23:20;11.10;99.90
21184;DHT22;18176;49.502;11.754;2023-09-19T23:27:23;11.00;99.90
21184;DHT22;18176;49.502;11.754;2023-09-19T23:31:32;11.00;99.90
21184;DHT22;18176;49.502;11.754;2023-09-19T23:35:35;10.90;99.90
21184;DHT22;18176;49.502;11.754;2023-09-19T23:39:35;10.90;99.90
21184;DHT22;18176;49.502;11.754;2023-09-19T23:43:41;10.90;99.90
21184;DHT22;18176;49.502;11.754;2023-09-19T23:47:42;10.80;99.90
21184;DHT22;18176;49.502;11.754;2023-09-19T23:51:43;10.80;99.90
21184;DHT22;18176;49.502;11.754;2023-09-19T23:55:44;10.80;99.90
21184;DHT22;18176;49.502;11.754;2023-09-19T23:59:47;10.80;99.90
